Saint-Denis/Gillot, Reunion
Current Conditions -  °F | °C
As of 9:00 AM on Saturday 29 Nov 2014 (Local Time) from FMEE Reporting Station
Few Clouds Few Clouds  
Wind Chill: 86°   Ceiling: Unl
Heat Index: 93°   Visibility: 6mi
Dew Point: 73°   Wind: 6mph
Humidity: 66%   Direction: 310°NW
Pressure: 29.83"   Gusts: NA
Location:  20.89°S, 55.51°E
Report Text: FMEE 290500Z 31005KT 9999 FEW026 30/23 Q1010 NOSIG
Loading
Personal Weather Stations






























Interactive Weather Map New forecast layout! Learn more

10-Day Weather Forecast

Advertisements
Track Severe Weather on mobile